sensor_id;sensor_type;location;lat;lon;timestamp;P1;durP1;ratioP1;P2;durP2;ratioP2
15155;SDS011;7678;50.058;8.306;2023-04-08T00:00:58;19.00;;;12.67;;
15155;SDS011;7678;50.058;8.306;2023-04-08T00:03:27;19.67;;;13.50;;
15155;SDS011;7678;50.058;8.306;2023-04-08T00:05:56;18.47;;;13.33;;
15155;SDS011;7678;50.058;8.306;2023-04-08T00:08:26;17.10;;;12.37;;
15155;SDS011;7678;50.058;8.306;2023-04-08T00:10:54;18.30;;;13.57;;
15155;SDS011;7678;50.058;8.306;2023-04-08T00:13:22;17.77;;;13.20;;
15155;SDS011;7678;50.058;8.306;2023-04-08T00:15:50;20.60;;;13.10;;
15155;SDS011;7678;50.058;8.306;2023-04-08T00:18:18;16.03;;;12.67;;
15155;SDS011;7678;50.058;8.306;2023-04-08T00:20:48;18.33;;;13.73;;
15155;SDS011;7678;50.058;8.306;2023-04-08T00:23:16;17.10;;;12.30;;
15155;SDS011;7678;50.058;8.306;2023-04-08T00:25:46;21.13;;;13.43;;
15155;SDS011;7678;50.058;8.306;2023-04-08T00:28:15;20.20;;;13.33;;
15155;SDS011;7678;50.058;8.306;2023-04-08T00:30:43;17.77;;;13.53;;
15155;SDS011;7678;50.058;8.306;2023-04-08T00:33:11;16.73;;;12.80;;
15155;SDS011;7678;50.058;8.306;2023-04-08T00:35:39;17.60;;;13.37;;
15155;SDS011;7678;50.058;8.306;2023-04-08T00:38:09;18.87;;;13.73;;
15155;SDS011;7678;50.058;8.306;2023-04-08T00:40:38;16.63;;;13.20;;
15155;SDS011;7678;50.058;8.306;2023-04-08T00:43:06;17.90;;;12.67;;
15155;SDS011;7678;50.058;8.306;2023-04-08T00:45:34;17.87;;;13.73;;
15155;SDS011;7678;50.058;8.306;2023-04-08T00:48:05;17.43;;;13.53;;
15155;SDS011;7678;50.058;8.306;2023-04-08T00:50:33;16.87;;;12.40;;
15155;SDS011;7678;50.058;8.306;2023-04-08T00:53:03;17.07;;;12.87;;
15155;SDS011;7678;50.058;8.306;2023-04-08T00:55:32;15.40;;;12.90;;
15155;SDS011;7678;50.058;8.306;2023-04-08T00:58:01;17.70;;;12.93;;
15155;SDS011;7678;50.058;8.306;2023-04-08T01:00:29;17.77;;;13.03;;
15155;SDS011;7678;50.058;8.306;2023-04-08T01:03:00;17.17;;;13.27;;
15155;SDS011;7678;50.058;8.306;2023-04-08T01:05:35;18.63;;;13.40;;
15155;SDS011;7678;50.058;8.306;2023-04-08T01:08:16;17.57;;;13.43;;
15155;SDS011;7678;50.058;8.306;2023-04-08T01:10:46;16.30;;;12.43;;
15155;SDS011;7678;50.058;8.306;2023-04-08T01:13:18;16.97;;;11.50;;
15155;SDS011;7678;50.058;8.306;2023-04-08T01:15:49;15.27;;;11.53;;
15155;SDS011;7678;50.058;8.306;2023-04-08T01:18:17;14.43;;;11.33;;
15155;SDS011;7678;50.058;8.306;2023-04-08T01:20:47;14.27;;;11.17;;
15155;SDS011;7678;50.058;8.306;2023-04-08T01:23:19;14.60;;;10.03;;
15155;SDS011;7678;50.058;8.306;2023-04-08T01:25:58;13.77;;;10.73;;
15155;SDS011;7678;50.058;8.306;2023-04-08T01:28:27;13.00;;;9.87;;
15155;SDS011;7678;50.058;8.306;2023-04-08T01:30:57;14.23;;;10.77;;
15155;SDS011;7678;50.058;8.306;2023-04-08T01:33:27;12.17;;;9.27;;
15155;SDS011;7678;50.058;8.306;2023-04-08T01:35:57;12.07;;;9.20;;
15155;SDS011;7678;50.058;8.306;2023-04-08T01:38:27;10.20;;;8.63;;
15155;SDS011;7678;50.058;8.306;2023-04-08T01:40:56;10.93;;;9.13;;
15155;SDS011;7678;50.058;8.306;2023-04-08T01:43:26;10.03;;;7.97;;
15155;SDS011;7678;50.058;8.306;2023-04-08T01:45:57;14.77;;;8.80;;
15155;SDS011;7678;50.058;8.306;2023-04-08T01:48:26;10.97;;;8.40;;
15155;SDS011;7678;50.058;8.306;2023-04-08T01:50:55;9.07;;;7.67;;
15155;SDS011;7678;50.058;8.306;2023-04-08T01:53:24;10.30;;;8.00;;
15155;SDS011;7678;50.058;8.306;2023-04-08T01:55:54;10.73;;;8.03;;
15155;SDS011;7678;50.058;8.306;2023-04-08T01:58:26;8.63;;;7.57;;
15155;SDS011;7678;50.058;8.306;2023-04-08T02:01:01;8.17;;;7.13;;
15155;SDS011;7678;50.058;8.306;2023-04-08T02:03:31;11.83;;;7.93;;
15155;SDS011;7678;50.058;8.306;2023-04-08T02:06:02;9.37;;;8.13;;
15155;SDS011;7678;50.058;8.306;2023-04-08T02:08:33;10.23;;;7.90;;
15155;SDS011;7678;50.058;8.306;2023-04-08T02:11:01;9.77;;;7.80;;
15155;SDS011;7678;50.058;8.306;2023-04-08T02:13:31;10.47;;;8.03;;
15155;SDS011;7678;50.058;8.306;2023-04-08T02:16:02;9.90;;;8.17;;
15155;SDS011;7678;50.058;8.306;2023-04-08T02:18:33;11.00;;;7.73;;
15155;SDS011;7678;50.058;8.306;2023-04-08T02:21:04;9.80;;;7.30;;
15155;SDS011;7678;50.058;8.306;2023-04-08T02:23:37;9.23;;;8.03;;
15155;SDS011;7678;50.058;8.306;2023-04-08T02:26:12;9.80;;;7.90;;
15155;SDS011;7678;50.058;8.306;2023-04-08T02:28:43;9.40;;;7.33;;
15155;SDS011;7678;50.058;8.306;2023-04-08T02:31:15;9.27;;;7.27;;
15155;SDS011;7678;50.058;8.306;2023-04-08T02:33:44;11.93;;;8.23;;
15155;SDS011;7678;50.058;8.306;2023-04-08T02:36:15;7.93;;;7.07;;
15155;SDS011;7678;50.058;8.306;2023-04-08T02:38:46;8.43;;;7.00;;
15155;SDS011;7678;50.058;8.306;2023-04-08T02:41:15;10.50;;;7.80;;
15155;SDS011;7678;50.058;8.306;2023-04-08T02:43:45;9.47;;;7.20;;
15155;SDS011;7678;50.058;8.306;2023-04-08T02:46:13;9.37;;;8.03;;
15155;SDS011;7678;50.058;8.306;2023-04-08T02:48:41;12.03;;;9.87;;
15155;SDS011;7678;50.058;8.306;2023-04-08T02:51:09;12.90;;;10.43;;
15155;SDS011;7678;50.058;8.306;2023-04-08T02:53:37;12.67;;;10.53;;
15155;SDS011;7678;50.058;8.306;2023-04-08T02:56:05;15.00;;;11.87;;
15155;SDS011;7678;50.058;8.306;2023-04-08T02:58:36;15.57;;;13.00;;
15155;SDS011;7678;50.058;8.306;2023-04-08T03:01:05;17.10;;;13.77;;
15155;SDS011;7678;50.058;8.306;2023-04-08T03:03:34;17.50;;;13.70;;
15155;SDS011;7678;50.058;8.306;2023-04-08T03:06:03;20.93;;;16.23;;
15155;SDS011;7678;50.058;8.306;2023-04-08T03:08:30;17.93;;;15.07;;
15155;SDS011;7678;50.058;8.306;2023-04-08T03:10:59;21.80;;;15.63;;
15155;SDS011;7678;50.058;8.306;2023-04-08T03:13:26;21.93;;;15.80;;
15155;SDS011;7678;50.058;8.306;2023-04-08T03:15:55;20.87;;;15.70;;
15155;SDS011;7678;50.058;8.306;2023-04-08T03:18:25;20.17;;;15.50;;
15155;SDS011;7678;50.058;8.306;2023-04-08T03:20:53;17.30;;;14.63;;
15155;SDS011;7678;50.058;8.306;2023-04-08T03:23:21;19.33;;;15.33;;
15155;SDS011;7678;50.058;8.306;2023-04-08T03:25:49;19.67;;;15.50;;
15155;SDS011;7678;50.058;8.306;2023-04-08T03:28:17;19.37;;;15.30;;
15155;SDS011;7678;50.058;8.306;2023-04-08T03:30:45;20.03;;;15.53;;
15155;SDS011;7678;50.058;8.306;2023-04-08T03:33:13;19.43;;;14.97;;
15155;SDS011;7678;50.058;8.306;2023-04-08T03:35:42;20.67;;;15.60;;
15155;SDS011;7678;50.058;8.306;2023-04-08T03:38:11;19.87;;;15.53;;
15155;SDS011;7678;50.058;8.306;2023-04-08T03:40:39;20.57;;;15.80;;
15155;SDS011;7678;50.058;8.306;2023-04-08T03:43:07;21.20;;;15.80;;
15155;SDS011;7678;50.058;8.306;2023-04-08T03:45:36;20.03;;;15.73;;
15155;SDS011;7678;50.058;8.306;2023-04-08T03:48:05;21.87;;;15.70;;
15155;SDS011;7678;50.058;8.306;2023-04-08T03:50:33;19.60;;;15.53;;
15155;SDS011;7678;50.058;8.306;2023-04-08T03:53:02;21.70;;;16.67;;
15155;SDS011;7678;50.058;8.306;2023-04-08T03:55:30;21.43;;;16.83;;
15155;SDS011;7678;50.058;8.306;2023-04-08T03:57:58;23.27;;;17.10;;
15155;SDS011;7678;50.058;8.306;2023-04-08T04:00:26;23.33;;;17.43;;
15155;SDS011;7678;50.058;8.306;2023-04-08T04:02:55;22.47;;;17.50;;
15155;SDS011;7678;50.058;8.306;2023-04-08T04:05:23;20.73;;;16.27;;
15155;SDS011;7678;50.058;8.306;2023-04-08T04:07:51;20.23;;;16.07;;
15155;SDS011;7678;50.058;8.306;2023-04-08T04:10:20;20.57;;;15.73;;
15155;SDS011;7678;50.058;8.306;2023-04-08T04:12:48;20.13;;;15.53;;
15155;SDS011;7678;50.058;8.306;2023-04-08T04:15:17;21.73;;;16.43;;
15155;SDS011;7678;50.058;8.306;2023-04-08T04:17:46;22.40;;;17.10;;
15155;SDS011;7678;50.058;8.306;2023-04-08T04:20:15;23.77;;;16.87;;
15155;SDS011;7678;50.058;8.306;2023-04-08T04:22:44;22.33;;;17.10;;
15155;SDS011;7678;50.058;8.306;2023-04-08T04:25:12;25.33;;;17.50;;
15155;SDS011;7678;50.058;8.306;2023-04-08T04:27:41;25.43;;;18.20;;
15155;SDS011;7678;50.058;8.306;2023-04-08T04:30:09;25.97;;;18.90;;
15155;SDS011;7678;50.058;8.306;2023-04-08T04:32:40;27.63;;;20.03;;
15155;SDS011;7678;50.058;8.306;2023-04-08T04:35:09;25.93;;;19.20;;
15155;SDS011;7678;50.058;8.306;2023-04-08T04:37:37;26.97;;;19.73;;
15155;SDS011;7678;50.058;8.306;2023-04-08T04:40:05;31.17;;;21.00;;
15155;SDS011;7678;50.058;8.306;2023-04-08T04:42:34;27.83;;;21.03;;
15155;SDS011;7678;50.058;8.306;2023-04-08T04:45:04;27.40;;;20.80;;
15155;SDS011;7678;50.058;8.306;2023-04-08T04:47:33;26.93;;;21.03;;
15155;SDS011;7678;50.058;8.306;2023-04-08T04:50:01;28.67;;;21.30;;
15155;SDS011;7678;50.058;8.306;2023-04-08T04:52:29;27.73;;;21.10;;
15155;SDS011;7678;50.058;8.306;2023-04-08T04:54:57;26.47;;;20.30;;
15155;SDS011;7678;50.058;8.306;2023-04-08T04:57:25;24.83;;;20.03;;
15155;SDS011;7678;50.058;8.306;2023-04-08T04:59:54;25.40;;;21.53;;
15155;SDS011;7678;50.058;8.306;2023-04-08T05:02:23;28.23;;;22.07;;
15155;SDS011;7678;50.058;8.306;2023-04-08T05:04:51;23.03;;;19.03;;
15155;SDS011;7678;50.058;8.306;2023-04-08T05:07:21;24.37;;;20.47;;
15155;SDS011;7678;50.058;8.306;2023-04-08T05:09:49;28.53;;;20.60;;
15155;SDS011;7678;50.058;8.306;2023-04-08T05:12:17;23.67;;;19.20;;
15155;SDS011;7678;50.058;8.306;2023-04-08T05:14:45;24.27;;;19.20;;
15155;SDS011;7678;50.058;8.306;2023-04-08T05:17:14;26.50;;;20.20;;
15155;SDS011;7678;50.058;8.306;2023-04-08T05:19:43;23.37;;;18.93;;
15155;SDS011;7678;50.058;8.306;2023-04-08T05:22:11;24.40;;;19.53;;
15155;SDS011;7678;50.058;8.306;2023-04-08T05:24:39;23.87;;;19.77;;
15155;SDS011;7678;50.058;8.306;2023-04-08T05:27:07;26.30;;;19.93;;
15155;SDS011;7678;50.058;8.306;2023-04-08T05:29:36;21.77;;;18.23;;
15155;SDS011;7678;50.058;8.306;2023-04-08T05:32:04;22.00;;;18.10;;
15155;SDS011;7678;50.058;8.306;2023-04-08T05:34:32;24.70;;;19.07;;
15155;SDS011;7678;50.058;8.306;2023-04-08T05:37:01;21.30;;;18.57;;
15155;SDS011;7678;50.058;8.306;2023-04-08T05:39:30;26.10;;;18.33;;
15155;SDS011;7678;50.058;8.306;2023-04-08T05:41:58;23.93;;;18.97;;
15155;SDS011;7678;50.058;8.306;2023-04-08T05:44:26;23.13;;;18.03;;
15155;SDS011;7678;50.058;8.306;2023-04-08T05:46:54;21.97;;;18.47;;
15155;SDS011;7678;50.058;8.306;2023-04-08T05:49:23;24.37;;;19.87;;
15155;SDS011;7678;50.058;8.306;2023-04-08T05:51:51;22.70;;;19.23;;
15155;SDS011;7678;50.058;8.306;2023-04-08T05:54:21;26.77;;;19.73;;
15155;SDS011;7678;50.058;8.306;2023-04-08T05:56:49;25.77;;;20.70;;
15155;SDS011;7678;50.058;8.306;2023-04-08T05:59:17;25.67;;;19.57;;
15155;SDS011;7678;50.058;8.306;2023-04-08T06:01:45;24.97;;;19.57;;
15155;SDS011;7678;50.058;8.306;2023-04-08T06:04:13;23.43;;;19.50;;
15155;SDS011;7678;50.058;8.306;2023-04-08T06:06:43;24.80;;;19.60;;
15155;SDS011;7678;50.058;8.306;2023-04-08T06:09:11;25.00;;;20.53;;
15155;SDS011;7678;50.058;8.306;2023-04-08T06:11:40;25.23;;;19.07;;
15155;SDS011;7678;50.058;8.306;2023-04-08T06:14:09;24.53;;;19.47;;
15155;SDS011;7678;50.058;8.306;2023-04-08T06:16:37;23.93;;;19.87;;
15155;SDS011;7678;50.058;8.306;2023-04-08T06:19:05;22.20;;;19.00;;
15155;SDS011;7678;50.058;8.306;2023-04-08T06:21:33;21.50;;;18.53;;
15155;SDS011;7678;50.058;8.306;2023-04-08T06:24:01;20.63;;;17.60;;
15155;SDS011;7678;50.058;8.306;2023-04-08T06:26:30;22.43;;;17.40;;
15155;SDS011;7678;50.058;8.306;2023-04-08T06:29:00;19.47;;;17.33;;
15155;SDS011;7678;50.058;8.306;2023-04-08T06:31:28;24.87;;;18.50;;
15155;SDS011;7678;50.058;8.306;2023-04-08T06:33:56;24.30;;;19.40;;
15155;SDS011;7678;50.058;8.306;2023-04-08T06:36:24;24.17;;;20.23;;
15155;SDS011;7678;50.058;8.306;2023-04-08T06:38:53;21.00;;;18.40;;
15155;SDS011;7678;50.058;8.306;2023-04-08T06:41:21;26.30;;;21.63;;
15155;SDS011;7678;50.058;8.306;2023-04-08T06:43:50;23.63;;;19.27;;
15155;SDS011;7678;50.058;8.306;2023-04-08T06:46:19;24.67;;;20.60;;
15155;SDS011;7678;50.058;8.306;2023-04-08T06:48:47;23.33;;;20.23;;
15155;SDS011;7678;50.058;8.306;2023-04-08T06:51:16;26.03;;;20.77;;
15155;SDS011;7678;50.058;8.306;2023-04-08T06:53:44;23.00;;;19.73;;
15155;SDS011;7678;50.058;8.306;2023-04-08T06:56:12;26.97;;;19.77;;
15155;SDS011;7678;50.058;8.306;2023-04-08T06:58:40;24.07;;;20.13;;
15155;SDS011;7678;50.058;8.306;2023-04-08T07:01:08;26.27;;;21.13;;
15155;SDS011;7678;50.058;8.306;2023-04-08T07:03:38;24.57;;;20.70;;
15155;SDS011;7678;50.058;8.306;2023-04-08T07:06:06;25.63;;;21.50;;
15155;SDS011;7678;50.058;8.306;2023-04-08T07:08:34;26.43;;;22.13;;
15155;SDS011;7678;50.058;8.306;2023-04-08T07:11:02;29.30;;;22.73;;
15155;SDS011;7678;50.058;8.306;2023-04-08T07:13:31;27.27;;;22.67;;
15155;SDS011;7678;50.058;8.306;2023-04-08T07:15:59;26.20;;;22.87;;
15155;SDS011;7678;50.058;8.306;2023-04-08T07:18:27;28.77;;;22.87;;
15155;SDS011;7678;50.058;8.306;2023-04-08T07:20:56;25.10;;;21.77;;
15155;SDS011;7678;50.058;8.306;2023-04-08T07:23:26;25.80;;;21.97;;
15155;SDS011;7678;50.058;8.306;2023-04-08T07:25:54;23.47;;;20.33;;
15155;SDS011;7678;50.058;8.306;2023-04-08T07:28:22;22.47;;;20.13;;
15155;SDS011;7678;50.058;8.306;2023-04-08T07:30:50;22.50;;;18.97;;
15155;SDS011;7678;50.058;8.306;2023-04-08T07:33:18;21.47;;;19.07;;
15155;SDS011;7678;50.058;8.306;2023-04-08T07:35:46;19.87;;;17.73;;
15155;SDS011;7678;50.058;8.306;2023-04-08T07:38:16;19.53;;;17.43;;
15155;SDS011;7678;50.058;8.306;2023-04-08T07:40:44;20.03;;;17.43;;
15155;SDS011;7678;50.058;8.306;2023-04-08T07:43:12;19.37;;;17.00;;
15155;SDS011;7678;50.058;8.306;2023-04-08T07:45:40;18.67;;;16.67;;
15155;SDS011;7678;50.058;8.306;2023-04-08T07:48:09;17.53;;;15.63;;
15155;SDS011;7678;50.058;8.306;2023-04-08T07:50:37;18.13;;;15.67;;
15155;SDS011;7678;50.058;8.306;2023-04-08T07:53:26;16.30;;;14.60;;
15155;SDS011;7678;50.058;8.306;2023-04-08T07:55:55;16.37;;;14.27;;
15155;SDS011;7678;50.058;8.306;2023-04-08T07:58:23;14.83;;;13.33;;
15155;SDS011;7678;50.058;8.306;2023-04-08T08:00:54;16.03;;;13.80;;
15155;SDS011;7678;50.058;8.306;2023-04-08T08:03:23;15.37;;;12.90;;
15155;SDS011;7678;50.058;8.306;2023-04-08T08:05:52;16.77;;;12.90;;
15155;SDS011;7678;50.058;8.306;2023-04-08T08:08:28;13.17;;;11.77;;
15155;SDS011;7678;50.058;8.306;2023-04-08T08:11:00;13.63;;;11.87;;
15155;SDS011;7678;50.058;8.306;2023-04-08T08:13:28;13.33;;;12.03;;
15155;SDS011;7678;50.058;8.306;2023-04-08T08:15:56;13.63;;;11.93;;
15155;SDS011;7678;50.058;8.306;2023-04-08T08:18:24;13.10;;;11.50;;
15155;SDS011;7678;50.058;8.306;2023-04-08T08:20:55;13.47;;;12.07;;
15155;SDS011;7678;50.058;8.306;2023-04-08T08:23:23;14.50;;;12.33;;
15155;SDS011;7678;50.058;8.306;2023-04-08T08:25:59;14.27;;;12.60;;
15155;SDS011;7678;50.058;8.306;2023-04-08T08:28:27;15.50;;;12.37;;
15155;SDS011;7678;50.058;8.306;2023-04-08T08:30:55;15.17;;;12.90;;
15155;SDS011;7678;50.058;8.306;2023-04-08T08:33:24;14.03;;;12.63;;
15155;SDS011;7678;50.058;8.306;2023-04-08T08:35:52;14.67;;;12.83;;
15155;SDS011;7678;50.058;8.306;2023-04-08T08:38:23;14.90;;;13.00;;
15155;SDS011;7678;50.058;8.306;2023-04-08T08:40:53;14.40;;;12.57;;
15155;SDS011;7678;50.058;8.306;2023-04-08T08:43:23;17.37;;;13.03;;
15155;SDS011;7678;50.058;8.306;2023-04-08T08:45:52;16.53;;;12.80;;
15155;SDS011;7678;50.058;8.306;2023-04-08T08:48:22;14.97;;;12.63;;
15155;SDS011;7678;50.058;8.306;2023-04-08T08:50:50;14.43;;;12.87;;
15155;SDS011;7678;50.058;8.306;2023-04-08T08:53:27;18.23;;;15.03;;
15155;SDS011;7678;50.058;8.306;2023-04-08T08:55:59;19.03;;;15.07;;
15155;SDS011;7678;50.058;8.306;2023-04-08T08:58:33;15.97;;;14.30;;
15155;SDS011;7678;50.058;8.306;2023-04-08T09:04:12;17.27;;;15.00;;
15155;SDS011;7678;50.058;8.306;2023-04-08T09:06:42;17.23;;;14.57;;
15155;SDS011;7678;50.058;8.306;2023-04-08T09:09:15;17.67;;;15.43;;
15155;SDS011;7678;50.058;8.306;2023-04-08T09:11:44;20.80;;;15.80;;
15155;SDS011;7678;50.058;8.306;2023-04-08T09:14:21;18.40;;;16.03;;
15155;SDS011;7678;50.058;8.306;2023-04-08T09:16:51;18.20;;;16.13;;
15155;SDS011;7678;50.058;8.306;2023-04-08T09:19:23;16.53;;;14.83;;
15155;SDS011;7678;50.058;8.306;2023-04-08T09:22:03;18.87;;;15.87;;
15155;SDS011;7678;50.058;8.306;2023-04-08T09:24:33;17.93;;;16.03;;
15155;SDS011;7678;50.058;8.306;2023-04-08T09:27:02;16.80;;;15.00;;
15155;SDS011;7678;50.058;8.306;2023-04-08T09:29:34;17.57;;;15.77;;
15155;SDS011;7678;50.058;8.306;2023-04-08T09:32:05;18.90;;;16.30;;
15155;SDS011;7678;50.058;8.306;2023-04-08T09:34:35;17.00;;;14.87;;
15155;SDS011;7678;50.058;8.306;2023-04-08T09:37:03;17.23;;;15.53;;
15155;SDS011;7678;50.058;8.306;2023-04-08T09:39:32;16.23;;;14.63;;
15155;SDS011;7678;50.058;8.306;2023-04-08T09:42:06;17.47;;;14.67;;
15155;SDS011;7678;50.058;8.306;2023-04-08T09:47:59;18.23;;;15.77;;
15155;SDS011;7678;50.058;8.306;2023-04-08T09:50:42;17.23;;;15.43;;
15155;SDS011;7678;50.058;8.306;2023-04-08T09:53:23;16.97;;;15.17;;
15155;SDS011;7678;50.058;8.306;2023-04-08T09:56:07;17.63;;;15.80;;
15155;SDS011;7678;50.058;8.306;2023-04-08T09:58:58;16.87;;;14.30;;
15155;SDS011;7678;50.058;8.306;2023-04-08T10:01:36;16.50;;;14.63;;
15155;SDS011;7678;50.058;8.306;2023-04-08T10:04:14;16.53;;;14.43;;
15155;SDS011;7678;50.058;8.306;2023-04-08T10:06:47;14.80;;;13.33;;
15155;SDS011;7678;50.058;8.306;2023-04-08T10:09:20;15.07;;;13.27;;
15155;SDS011;7678;50.058;8.306;2023-04-08T10:11:49;14.07;;;12.67;;
15155;SDS011;7678;50.058;8.306;2023-04-08T10:14:20;13.77;;;12.37;;
15155;SDS011;7678;50.058;8.306;2023-04-08T10:24:28;15.97;;;13.47;;
15155;SDS011;7678;50.058;8.306;2023-04-08T10:27:08;12.53;;;11.20;;
15155;SDS011;7678;50.058;8.306;2023-04-08T10:33:15;11.00;;;9.90;;
15155;SDS011;7678;50.058;8.306;2023-04-08T10:35:58;11.10;;;9.90;;
15155;SDS011;7678;50.058;8.306;2023-04-08T10:38:28;13.73;;;10.23;;
15155;SDS011;7678;50.058;8.306;2023-04-08T10:40:56;19.73;;;9.83;;
15155;SDS011;7678;50.058;8.306;2023-04-08T10:43:25;11.63;;;9.20;;
15155;SDS011;7678;50.058;8.306;2023-04-08T10:46:00;11.93;;;8.87;;
15155;SDS011;7678;50.058;8.306;2023-04-08T10:48:28;10.30;;;8.70;;
15155;SDS011;7678;50.058;8.306;2023-04-08T10:50:59;9.47;;;8.37;;
15155;SDS011;7678;50.058;8.306;2023-04-08T10:53:29;11.63;;;8.17;;
15155;SDS011;7678;50.058;8.306;2023-04-08T10:56:02;10.97;;;7.67;;
15155;SDS011;7678;50.058;8.306;2023-04-08T10:58:31;10.03;;;7.60;;
15155;SDS011;7678;50.058;8.306;2023-04-08T11:01:03;9.80;;;7.97;;
15155;SDS011;7678;50.058;8.306;2023-04-08T11:03:33;9.77;;;8.30;;
15155;SDS011;7678;50.058;8.306;2023-04-08T11:06:15;10.13;;;8.87;;
15155;SDS011;7678;50.058;8.306;2023-04-08T11:08:44;11.83;;;8.30;;
15155;SDS011;7678;50.058;8.306;2023-04-08T11:11:13;9.47;;;8.47;;
15155;SDS011;7678;50.058;8.306;2023-04-08T11:13:41;11.20;;;8.87;;
15155;SDS011;7678;50.058;8.306;2023-04-08T11:16:19;12.27;;;9.17;;
15155;SDS011;7678;50.058;8.306;2023-04-08T11:18:49;14.00;;;8.70;;
15155;SDS011;7678;50.058;8.306;2023-04-08T11:21:19;10.60;;;8.73;;
15155;SDS011;7678;50.058;8.306;2023-04-08T11:23:48;17.80;;;11.43;;
15155;SDS011;7678;50.058;8.306;2023-04-08T11:26:17;21.07;;;13.20;;
15155;SDS011;7678;50.058;8.306;2023-04-08T11:28:46;10.83;;;8.90;;
15155;SDS011;7678;50.058;8.306;2023-04-08T11:31:16;10.37;;;9.27;;
15155;SDS011;7678;50.058;8.306;2023-04-08T11:33:48;14.00;;;8.10;;
15155;SDS011;7678;50.058;8.306;2023-04-08T11:36:22;9.30;;;7.30;;
15155;SDS011;7678;50.058;8.306;2023-04-08T11:38:52;8.67;;;7.83;;
15155;SDS011;7678;50.058;8.306;2023-04-08T11:41:21;12.77;;;8.23;;
15155;SDS011;7678;50.058;8.306;2023-04-08T11:43:52;9.47;;;7.77;;
15155;SDS011;7678;50.058;8.306;2023-04-08T11:46:21;8.97;;;7.90;;
15155;SDS011;7678;50.058;8.306;2023-04-08T11:48:57;9.83;;;7.30;;
15155;SDS011;7678;50.058;8.306;2023-04-08T11:51:31;8.83;;;7.20;;
15155;SDS011;7678;50.058;8.306;2023-04-08T11:54:03;12.03;;;7.93;;
15155;SDS011;7678;50.058;8.306;2023-04-08T11:56:35;9.03;;;8.10;;
15155;SDS011;7678;50.058;8.306;2023-04-08T11:59:12;9.10;;;8.13;;
15155;SDS011;7678;50.058;8.306;2023-04-08T12:01:40;10.43;;;8.20;;
15155;SDS011;7678;50.058;8.306;2023-04-08T12:04:09;8.37;;;7.20;;
15155;SDS011;7678;50.058;8.306;2023-04-08T12:06:39;7.93;;;7.13;;
15155;SDS011;7678;50.058;8.306;2023-04-08T12:09:08;10.07;;;7.53;;
15155;SDS011;7678;50.058;8.306;2023-04-08T12:11:37;7.30;;;6.60;;
15155;SDS011;7678;50.058;8.306;2023-04-08T12:14:05;9.37;;;6.87;;
15155;SDS011;7678;50.058;8.306;2023-04-08T12:16:33;7.10;;;6.40;;
15155;SDS011;7678;50.058;8.306;2023-04-08T12:19:01;7.30;;;5.77;;
15155;SDS011;7678;50.058;8.306;2023-04-08T12:21:29;7.40;;;6.27;;
15155;SDS011;7678;50.058;8.306;2023-04-08T12:24:00;7.13;;;6.43;;
15155;SDS011;7678;50.058;8.306;2023-04-08T12:26:28;8.10;;;6.40;;
15155;SDS011;7678;50.058;8.306;2023-04-08T12:28:56;7.17;;;5.80;;
15155;SDS011;7678;50.058;8.306;2023-04-08T12:31:24;6.93;;;5.80;;
15155;SDS011;7678;50.058;8.306;2023-04-08T12:33:53;7.53;;;6.10;;
15155;SDS011;7678;50.058;8.306;2023-04-08T12:36:21;6.77;;;5.63;;
15155;SDS011;7678;50.058;8.306;2023-04-08T12:38:49;6.50;;;5.80;;
15155;SDS011;7678;50.058;8.306;2023-04-08T12:41:19;6.33;;;5.40;;
15155;SDS011;7678;50.058;8.306;2023-04-08T12:43:47;8.87;;;6.00;;
15155;SDS011;7678;50.058;8.306;2023-04-08T12:46:15;7.07;;;6.00;;
15155;SDS011;7678;50.058;8.306;2023-04-08T12:48:43;6.20;;;5.33;;
15155;SDS011;7678;50.058;8.306;2023-04-08T12:51:12;8.50;;;6.70;;
15155;SDS011;7678;50.058;8.306;2023-04-08T12:53:40;8.43;;;6.03;;
15155;SDS011;7678;50.058;8.306;2023-04-08T12:56:08;7.13;;;5.80;;
15155;SDS011;7678;50.058;8.306;2023-04-08T12:58:37;7.20;;;6.03;;
15155;SDS011;7678;50.058;8.306;2023-04-08T13:01:05;7.03;;;6.00;;
15155;SDS011;7678;50.058;8.306;2023-04-08T13:03:33;7.37;;;5.33;;
15155;SDS011;7678;50.058;8.306;2023-04-08T13:06:02;4.93;;;3.97;;
15155;SDS011;7678;50.058;8.306;2023-04-08T13:08:30;6.10;;;4.90;;
15155;SDS011;7678;50.058;8.306;2023-04-08T13:10:58;6.43;;;5.40;;
15155;SDS011;7678;50.058;8.306;2023-04-08T13:13:26;6.00;;;5.40;;
15155;SDS011;7678;50.058;8.306;2023-04-08T13:15:55;7.07;;;5.57;;
15155;SDS011;7678;50.058;8.306;2023-04-08T13:18:24;6.37;;;5.00;;
15155;SDS011;7678;50.058;8.306;2023-04-08T13:20:52;6.80;;;5.30;;
15155;SDS011;7678;50.058;8.306;2023-04-08T13:23:20;4.20;;;3.73;;
15155;SDS011;7678;50.058;8.306;2023-04-08T13:25:48;7.03;;;4.37;;
15155;SDS011;7678;50.058;8.306;2023-04-08T13:28:16;5.77;;;4.73;;
15155;SDS011;7678;50.058;8.306;2023-04-08T13:30:44;6.40;;;5.70;;
15155;SDS011;7678;50.058;8.306;2023-04-08T13:33:13;8.40;;;6.80;;
15155;SDS011;7678;50.058;8.306;2023-04-08T13:35:42;8.23;;;5.67;;
15155;SDS011;7678;50.058;8.306;2023-04-08T13:38:10;10.30;;;7.20;;
15155;SDS011;7678;50.058;8.306;2023-04-08T13:40:38;6.63;;;5.63;;
15155;SDS011;7678;50.058;8.306;2023-04-08T13:43:07;7.47;;;5.63;;
15155;SDS011;7678;50.058;8.306;2023-04-08T13:45:35;7.70;;;5.83;;
15155;SDS011;7678;50.058;8.306;2023-04-08T13:48:04;6.33;;;5.73;;
15155;SDS011;7678;50.058;8.306;2023-04-08T13:50:49;8.03;;;5.37;;
15155;SDS011;7678;50.058;8.306;2023-04-08T13:53:17;8.47;;;5.30;;
15155;SDS011;7678;50.058;8.306;2023-04-08T13:55:45;9.23;;;5.53;;
15155;SDS011;7678;50.058;8.306;2023-04-08T13:58:13;6.07;;;5.27;;
15155;SDS011;7678;50.058;8.306;2023-04-08T14:00:49;5.97;;;4.80;;
15155;SDS011;7678;50.058;8.306;2023-04-08T14:03:17;6.40;;;5.10;;
15155;SDS011;7678;50.058;8.306;2023-04-08T14:05:46;7.37;;;5.10;;
15155;SDS011;7678;50.058;8.306;2023-04-08T14:08:17;7.57;;;5.60;;
15155;SDS011;7678;50.058;8.306;2023-04-08T14:10:50;6.83;;;5.90;;
15155;SDS011;7678;50.058;8.306;2023-04-08T14:13:19;6.77;;;6.07;;
15155;SDS011;7678;50.058;8.306;2023-04-08T14:15:46;7.33;;;5.50;;
15155;SDS011;7678;50.058;8.306;2023-04-08T14:18:15;6.13;;;5.53;;
15155;SDS011;7678;50.058;8.306;2023-04-08T14:20:43;7.37;;;5.53;;
15155;SDS011;7678;50.058;8.306;2023-04-08T14:23:11;7.80;;;5.70;;
15155;SDS011;7678;50.058;8.306;2023-04-08T14:25:40;4.93;;;4.40;;
15155;SDS011;7678;50.058;8.306;2023-04-08T14:28:08;5.57;;;4.90;;
15155;SDS011;7678;50.058;8.306;2023-04-08T14:30:36;6.27;;;4.90;;
15155;SDS011;7678;50.058;8.306;2023-04-08T14:33:04;6.00;;;5.30;;
15155;SDS011;7678;50.058;8.306;2023-04-08T14:35:33;8.20;;;5.53;;
15155;SDS011;7678;50.058;8.306;2023-04-08T14:38:01;5.70;;;5.13;;
15155;SDS011;7678;50.058;8.306;2023-04-08T14:40:29;6.90;;;5.17;;
15155;SDS011;7678;50.058;8.306;2023-04-08T14:42:59;6.07;;;5.40;;
15155;SDS011;7678;50.058;8.306;2023-04-08T14:45:27;6.67;;;5.43;;
15155;SDS011;7678;50.058;8.306;2023-04-08T14:47:55;5.43;;;4.87;;
15155;SDS011;7678;50.058;8.306;2023-04-08T14:50:23;6.80;;;5.17;;
15155;SDS011;7678;50.058;8.306;2023-04-08T14:52:51;6.87;;;5.10;;
15155;SDS011;7678;50.058;8.306;2023-04-08T14:55:19;6.33;;;5.50;;
15155;SDS011;7678;50.058;8.306;2023-04-08T14:57:48;5.53;;;5.00;;
15155;SDS011;7678;50.058;8.306;2023-04-08T15:00:17;7.07;;;5.03;;
15155;SDS011;7678;50.058;8.306;2023-04-08T15:02:45;8.37;;;5.40;;
15155;SDS011;7678;50.058;8.306;2023-04-08T15:05:13;5.63;;;4.93;;
15155;SDS011;7678;50.058;8.306;2023-04-08T15:07:41;6.53;;;5.33;;
15155;SDS011;7678;50.058;8.306;2023-04-08T15:10:10;7.57;;;5.47;;
15155;SDS011;7678;50.058;8.306;2023-04-08T15:12:38;6.97;;;5.70;;
15155;SDS011;7678;50.058;8.306;2023-04-08T15:15:06;8.57;;;5.40;;